ARG2572 SAWH-YPPH
Flight info
| Callsign | ARG2572 |
|---|---|
| Flight time | N/A |
| Altitude | 33000 |
| Route | SUNLI2A SUNLI DCT 60S069W 74S071W/N0484F350 81S074W 85S078W 90S80W 85S121E 68S118E/N0479F370 52S117E/N0478F390 DCT 35S16 DCT SOLUS |
| Aircraft | B77W/H-SDE1E2E3FGHIJ2J3J4J5M1RWXY/LB1D1 |
Departure
| Time | 2026-05-09 03:30 |
|---|---|
| Airport | Ushuaia - Malvinas Argentinas International Airport (SAWH) |
Arrival
| Time | N/A |
|---|---|
| Airport | Perth International Airport (YPPH) |
| Time | Latitude | Longitude | Altitude | Speed | Heading |
|---|---|---|---|---|---|
| 2026-05-09 03:30 | -54.95254 | -68.00837 | 9847 ft | 267 kts | 306° |
| 2026-05-09 03:30 | -54.94164 | -68.03434 | 10403 ft | 263 kts | 306° |
| 2026-05-09 03:30 | -54.93056 | -68.06076 | 10590 ft | 277 kts | 306° |
| 2026-05-09 03:30 | -54.91903 | -68.08842 | 10861 ft | 287 kts | 306° |
| 2026-05-09 03:31 | -54.90715 | -68.11710 | 10987 ft | 305 kts | 306° |
| 2026-05-09 03:31 | -54.89441 | -68.14789 | 11141 ft | 322 kts | 306° |
| 2026-05-09 03:31 | -54.88094 | -68.18042 | 11287 ft | 340 kts | 305° |
| 2026-05-09 03:31 | -54.86681 | -68.21454 | 11507 ft | 356 kts | 305° |
| 2026-05-09 03:32 | -54.85435 | -68.25209 | 11765 ft | 364 kts | 288° |
| 2026-05-09 03:32 | -54.85015 | -68.29563 | 12287 ft | 371 kts | 270° |
| 2026-05-09 03:32 | -54.85315 | -68.34012 | 12990 ft | 373 kts | 255° |
| 2026-05-09 03:32 | -54.86305 | -68.38175 | 13594 ft | 375 kts | 245° |
| 2026-05-09 03:33 | -54.87488 | -68.42259 | 14158 ft | 381 kts | 244° |
| 2026-05-09 03:33 | -54.88676 | -68.46315 | 14789 ft | 384 kts | 244° |
| 2026-05-09 03:33 | -54.89876 | -68.50482 | 15445 ft | 386 kts | 244° |
| 2026-05-09 03:33 | -54.91064 | -68.54695 | 16043 ft | 390 kts | 244° |
| 2026-05-09 03:34 | -54.92251 | -68.58967 | 16627 ft | 393 kts | 245° |
| 2026-05-09 03:34 | -54.93440 | -68.63276 | 17220 ft | 396 kts | 245° |
| 2026-05-09 03:34 | -54.94719 | -68.67501 | 17700 ft | 398 kts | 235° |
| 2026-05-09 03:34 | -54.96673 | -68.70934 | 18086 ft | 406 kts | 214° |
| 2026-05-09 03:35 | -54.99209 | -68.73195 | 18669 ft | 409 kts | 200° |
| 2026-05-09 03:35 | -55.01966 | -68.74237 | 19211 ft | 412 kts | 185° |
| 2026-05-09 03:35 | -55.04873 | -68.74432 | 19629 ft | 418 kts | 182° |
| 2026-05-09 03:35 | -55.07797 | -68.74517 | 20065 ft | 423 kts | 182° |
| 2026-05-09 03:36 | -55.10758 | -68.74573 | 20636 ft | 425 kts | 182° |
| 2026-05-09 03:36 | -55.13717 | -68.74634 | 21193 ft | 427 kts | 182° |
| 2026-05-09 03:36 | -55.16667 | -68.74716 | 21674 ft | 430 kts | 182° |
| 2026-05-09 03:36 | -55.19689 | -68.74820 | 22133 ft | 433 kts | 183° |
| 2026-05-09 03:37 | -55.22693 | -68.74937 | 22584 ft | 436 kts | 183° |
| 2026-05-09 03:37 | -55.25769 | -68.75069 | 23054 ft | 439 kts | 183° |
| 2026-05-09 03:37 | -55.28810 | -68.75206 | 23497 ft | 441 kts | 183° |
| 2026-05-09 03:37 | -55.31877 | -68.75347 | 23928 ft | 444 kts | 183° |
| 2026-05-09 03:38 | -55.35002 | -68.75494 | 24340 ft | 446 kts | 183° |
| 2026-05-09 03:38 | -55.38080 | -68.75638 | 24776 ft | 448 kts | 183° |
| 2026-05-09 03:38 | -55.41200 | -68.75783 | 25244 ft | 449 kts | 184° |
| 2026-05-09 03:38 | -55.44337 | -68.75930 | 25691 ft | 449 kts | 184° |
| 2026-05-09 03:39 | -55.47454 | -68.76074 | 26112 ft | 450 kts | 184° |
| 2026-05-09 03:39 | -55.50605 | -68.76220 | 26515 ft | 451 kts | 184° |
| 2026-05-09 03:39 | -55.53740 | -68.76368 | 26913 ft | 452 kts | 184° |
| 2026-05-09 03:39 | -55.56857 | -68.76514 | 27293 ft | 453 kts | 184° |
| 2026-05-09 03:40 | -55.60061 | -68.76666 | 27672 ft | 454 kts | 184° |
| 2026-05-09 03:40 | -55.63174 | -68.76813 | 28044 ft | 454 kts | 184° |
| 2026-05-09 03:40 | -55.66366 | -68.76965 | 28384 ft | 455 kts | 185° |
| 2026-05-09 03:40 | -55.69510 | -68.77114 | 28713 ft | 456 kts | 185° |
| 2026-05-09 03:41 | -55.72685 | -68.77264 | 29016 ft | 457 kts | 185° |
| 2026-05-09 03:41 | -55.75897 | -68.77416 | 29315 ft | 458 kts | 185° |
| 2026-05-09 03:41 | -55.79050 | -68.77566 | 29598 ft | 458 kts | 185° |
| 2026-05-09 03:41 | -55.82247 | -68.77718 | 29856 ft | 459 kts | 185° |
| 2026-05-09 03:42 | -55.85438 | -68.77867 | 30103 ft | 459 kts | 185° |
| 2026-05-09 03:42 | -55.88662 | -68.78019 | 30196 ft | 461 kts | 185° |
| 2026-05-09 03:42 | -55.95089 | -68.78325 | 30276 ft | 460 kts | 185° |
| 2026-05-09 03:43 | -56.01479 | -68.78628 | 30272 ft | 460 kts | 185° |
| 2026-05-09 03:43 | -56.07868 | -68.78942 | 30284 ft | 464 kts | 185° |
| 2026-05-09 03:44 | -56.14351 | -68.79253 | 30273 ft | 465 kts | 185° |
| 2026-05-09 03:44 | -56.20824 | -68.79562 | 30276 ft | 464 kts | 185° |
| 2026-05-09 03:45 | -56.27265 | -68.79879 | 30277 ft | 465 kts | 185° |
| 2026-05-09 03:45 | -56.33719 | -68.80192 | 30279 ft | 465 kts | 185° |
| 2026-05-09 03:46 | -56.40236 | -68.80510 | 30275 ft | 465 kts | 185° |
| 2026-05-09 03:46 | -56.46703 | -68.80826 | 30279 ft | 466 kts | 185° |
| 2026-05-09 03:47 | -56.53150 | -68.81146 | 30287 ft | 467 kts | 185° |
| 2026-05-09 03:47 | -56.59661 | -68.81467 | 30282 ft | 467 kts | 185° |
| 2026-05-09 03:48 | -56.66137 | -68.81784 | 30288 ft | 467 kts | 185° |
| 2026-05-09 03:48 | -56.71578 | -68.82058 | 30286 ft | 468 kts | 185° |
| 2026-05-09 03:49 | -56.78087 | -68.82389 | 30285 ft | 469 kts | 185° |
| 2026-05-09 03:49 | -56.84611 | -68.82715 | 30288 ft | 469 kts | 185° |
| 2026-05-09 03:50 | -56.91139 | -68.83038 | 30285 ft | 469 kts | 185° |
| 2026-05-09 03:50 | -56.97635 | -68.83362 | 30285 ft | 469 kts | 185° |
| 2026-05-09 03:51 | -57.04190 | -68.83695 | 30289 ft | 470 kts | 186° |
| 2026-05-09 03:51 | -57.10700 | -68.84026 | 30285 ft | 470 kts | 186° |
| 2026-05-09 03:52 | -57.17265 | -68.84362 | 30283 ft | 470 kts | 186° |
| 2026-05-09 03:52 | -57.23809 | -68.84694 | 30287 ft | 471 kts | 186° |
| 2026-05-09 03:53 | -57.30363 | -68.85037 | 30285 ft | 471 kts | 186° |
| 2026-05-09 03:53 | -57.36936 | -68.85375 | 30285 ft | 472 kts | 185° |
| 2026-05-09 03:54 | -57.43517 | -68.85711 | 30285 ft | 472 kts | 186° |
| 2026-05-09 03:54 | -57.50062 | -68.86053 | 30288 ft | 473 kts | 186° |
| 2026-05-09 03:55 | -57.56669 | -68.86391 | 30285 ft | 473 kts | 186° |
| 2026-05-09 03:55 | -57.63202 | -68.86734 | 30287 ft | 473 kts | 186° |
| 2026-05-09 03:56 | -57.69790 | -68.87083 | 30282 ft | 473 kts | 186° |
| 2026-05-09 03:56 | -57.76375 | -68.87422 | 30288 ft | 474 kts | 186° |
| 2026-05-09 03:57 | -57.83003 | -68.87775 | 30282 ft | 474 kts | 186° |
| 2026-05-09 03:57 | -57.89558 | -68.88126 | 30287 ft | 473 kts | 186° |
| 2026-05-09 03:58 | -57.96169 | -68.88477 | 30284 ft | 474 kts | 186° |
| 2026-05-09 03:58 | -58.02721 | -68.88824 | 30281 ft | 475 kts | 186° |
| 2026-05-09 03:59 | -58.09343 | -68.89186 | 30287 ft | 478 kts | 186° |
| 2026-05-09 03:59 | -58.16042 | -68.89542 | 30289 ft | 478 kts | 186° |
| 2026-05-09 04:00 | -58.22688 | -68.89900 | 30295 ft | 478 kts | 186° |
| 2026-05-09 04:00 | -58.29319 | -68.90260 | 30295 ft | 478 kts | 186° |
| 2026-05-09 04:01 | -58.35964 | -68.90619 | 30290 ft | 479 kts | 186° |
| 2026-05-09 04:01 | -58.42627 | -68.90984 | 30284 ft | 479 kts | 186° |
| 2026-05-09 04:02 | -58.49304 | -68.91354 | 30287 ft | 479 kts | 186° |
| 2026-05-09 04:02 | -58.55987 | -68.91723 | 30285 ft | 480 kts | 186° |
| 2026-05-09 04:03 | -58.62635 | -68.92083 | 30283 ft | 480 kts | 186° |
| 2026-05-09 04:03 | -58.69312 | -68.92450 | 30285 ft | 481 kts | 186° |
| 2026-05-09 04:04 | -58.76022 | -68.92824 | 30288 ft | 481 kts | 186° |
| 2026-05-09 04:04 | -58.82697 | -68.93206 | 30284 ft | 481 kts | 186° |
| 2026-05-09 04:05 | -58.89403 | -68.93578 | 30285 ft | 482 kts | 186° |
| 2026-05-09 04:05 | -58.96128 | -68.93954 | 30286 ft | 482 kts | 186° |
| 2026-05-09 04:06 | -59.02814 | -68.94339 | 30285 ft | 483 kts | 186° |
| 2026-05-09 04:06 | -59.09552 | -68.94722 | 30284 ft | 483 kts | 186° |
| 2026-05-09 04:07 | -59.16273 | -68.95100 | 30286 ft | 484 kts | 186° |
| 2026-05-09 04:07 | -59.23011 | -68.95481 | 30285 ft | 484 kts | 186° |
| 2026-05-09 04:08 | -59.29711 | -68.95871 | 30286 ft | 484 kts | 186° |
| 2026-05-09 04:08 | -59.36455 | -68.96262 | 30286 ft | 485 kts | 186° |
| 2026-05-09 04:09 | -59.43208 | -68.96652 | 30290 ft | 485 kts | 186° |
| 2026-05-09 04:09 | -59.49972 | -68.97042 | 30297 ft | 485 kts | 186° |
| 2026-05-09 04:10 | -59.56690 | -68.97432 | 30292 ft | 486 kts | 186° |
| 2026-05-09 04:10 | -59.63472 | -68.97833 | 30293 ft | 486 kts | 186° |
| 2026-05-09 04:11 | -59.70236 | -68.98230 | 30285 ft | 486 kts | 186° |
| 2026-05-09 04:11 | -59.76962 | -68.98632 | 30285 ft | 486 kts | 186° |
| 2026-05-09 04:12 | -59.83728 | -68.99031 | 30286 ft | 486 kts | 186° |
| 2026-05-09 04:12 | -59.90504 | -68.99431 | 30286 ft | 487 kts | 186° |
| 2026-05-09 04:13 | -59.97298 | -68.99838 | 30287 ft | 487 kts | 186° |
| 2026-05-09 04:13 | -60.04043 | -69.00287 | 30286 ft | 488 kts | 187° |
| 2026-05-09 04:14 | -60.10862 | -69.00843 | 30289 ft | 491 kts | 187° |
| 2026-05-09 04:14 | -60.17708 | -69.01404 | 30284 ft | 491 kts | 187° |
| 2026-05-09 04:15 | -60.24503 | -69.01954 | 30286 ft | 491 kts | 187° |
| 2026-05-09 04:15 | -60.31339 | -69.02512 | 30285 ft | 491 kts | 187° |
| 2026-05-09 04:16 | -60.38135 | -69.03064 | 30287 ft | 491 kts | 187° |
| 2026-05-09 04:16 | -60.44982 | -69.03623 | 30286 ft | 492 kts | 187° |
| 2026-05-09 04:17 | -60.51788 | -69.04177 | 30286 ft | 492 kts | 187° |
| 2026-05-09 04:17 | -60.58641 | -69.04742 | 30284 ft | 492 kts | 187° |
| 2026-05-09 04:18 | -60.65489 | -69.05306 | 30287 ft | 492 kts | 187° |
| 2026-05-09 04:18 | -60.72353 | -69.05882 | 30283 ft | 493 kts | 187° |
| 2026-05-09 04:19 | -60.79173 | -69.06446 | 30287 ft | 493 kts | 187° |
| 2026-05-09 04:19 | -60.86028 | -69.07019 | 30284 ft | 494 kts | 187° |
| 2026-05-09 04:20 | -60.92912 | -69.07599 | 30287 ft | 494 kts | 187° |
| 2026-05-09 04:20 | -60.99788 | -69.08178 | 30284 ft | 495 kts | 187° |
| 2026-05-09 04:21 | -61.06674 | -69.08760 | 30288 ft | 495 kts | 187° |
| 2026-05-09 04:22 | -61.16976 | -69.09642 | 30287 ft | 496 kts | 187° |
| 2026-05-09 04:22 | -61.23880 | -69.10233 | 30284 ft | 496 kts | 187° |
| 2026-05-09 04:23 | -61.30792 | -69.10827 | 30286 ft | 497 kts | 188° |
| 2026-05-09 04:23 | -61.37673 | -69.11419 | 30284 ft | 497 kts | 188° |
| 2026-05-09 04:24 | -61.44592 | -69.12018 | 30287 ft | 498 kts | 188° |
| 2026-05-09 04:24 | -61.51521 | -69.12625 | 30284 ft | 498 kts | 188° |
| 2026-05-09 04:25 | -61.58470 | -69.13234 | 30287 ft | 498 kts | 188° |
| 2026-05-09 04:25 | -61.65363 | -69.13838 | 30284 ft | 499 kts | 188° |
| 2026-05-09 04:26 | -61.72310 | -69.14452 | 30287 ft | 499 kts | 188° |
| 2026-05-09 04:26 | -61.79264 | -69.15070 | 30284 ft | 499 kts | 188° |
| 2026-05-09 04:27 | -61.86210 | -69.15691 | 30285 ft | 500 kts | 188° |
| 2026-05-09 04:27 | -61.93172 | -69.16312 | 30286 ft | 500 kts | 188° |
| 2026-05-09 04:28 | -62.00082 | -69.16933 | 30286 ft | 500 kts | 188° |
| 2026-05-09 04:28 | -62.07064 | -69.17564 | 30285 ft | 503 kts | 188° |
| 2026-05-09 04:29 | -62.14079 | -69.18205 | 30288 ft | 503 kts | 188° |
| 2026-05-09 04:29 | -62.21043 | -69.18838 | 30284 ft | 503 kts | 188° |
| 2026-05-09 04:30 | -62.28037 | -69.19477 | 30289 ft | 503 kts | 188° |
| 2026-05-09 04:30 | -62.35033 | -69.20121 | 30296 ft | 503 kts | 188° |
| 2026-05-09 04:31 | -62.41999 | -69.20763 | 30296 ft | 503 kts | 188° |
| 2026-05-09 04:31 | -62.49003 | -69.21415 | 30294 ft | 503 kts | 188° |
| 2026-05-09 04:32 | -62.56010 | -69.22073 | 30295 ft | 503 kts | 188° |
| 2026-05-09 04:32 | -62.62973 | -69.22726 | 30291 ft | 503 kts | 188° |
| 2026-05-09 04:33 | -62.69990 | -69.23385 | 30284 ft | 503 kts | 188° |
| 2026-05-09 04:33 | -62.76986 | -69.24048 | 30286 ft | 503 kts | 188° |
| 2026-05-09 04:34 | -62.83943 | -69.24710 | 30285 ft | 503 kts | 188° |
| 2026-05-09 04:34 | -62.90956 | -69.25382 | 30287 ft | 504 kts | 188° |
| 2026-05-09 04:35 | -62.97983 | -69.26054 | 30286 ft | 504 kts | 188° |
| 2026-05-09 04:35 | -63.04962 | -69.26728 | 30285 ft | 504 kts | 188° |
| 2026-05-09 04:36 | -63.11972 | -69.27408 | 30286 ft | 504 kts | 188° |
| 2026-05-09 04:36 | -63.18996 | -69.28093 | 30286 ft | 505 kts | 188° |
| 2026-05-09 04:37 | -63.24837 | -69.28666 | 30286 ft | 505 kts | 188° |
| 2026-05-09 04:37 | -63.33005 | -69.29469 | 30285 ft | 505 kts | 189° |
| 2026-05-09 04:38 | -63.38838 | -69.30047 | 30285 ft | 505 kts | 189° |
| 2026-05-09 04:38 | -63.45895 | -69.30747 | 30285 ft | 505 kts | 189° |
| 2026-05-09 04:39 | -63.52872 | -69.31443 | 30286 ft | 505 kts | 189° |
| 2026-05-09 04:39 | -63.59916 | -69.32149 | 30285 ft | 505 kts | 189° |
| 2026-05-09 04:40 | -63.66933 | -69.32854 | 30287 ft | 505 kts | 189° |
| 2026-05-09 04:40 | -63.73924 | -69.33549 | 30282 ft | 505 kts | 189° |
| 2026-05-09 04:41 | -63.80956 | -69.34267 | 30287 ft | 505 kts | 189° |
| 2026-05-09 04:41 | -63.87988 | -69.35006 | 30287 ft | 506 kts | 189° |
| 2026-05-09 04:42 | -63.95020 | -69.35731 | 30288 ft | 506 kts | 189° |
| 2026-05-09 04:42 | -64.02065 | -69.36452 | 30285 ft | 506 kts | 189° |
| 2026-05-09 04:43 | -64.09126 | -69.37184 | 30287 ft | 507 kts | 189° |
| 2026-05-09 04:43 | -64.16140 | -69.37915 | 30287 ft | 508 kts | 189° |
| 2026-05-09 04:44 | -64.23203 | -69.38654 | 30284 ft | 507 kts | 189° |
| 2026-05-09 04:44 | -64.30259 | -69.39398 | 30286 ft | 507 kts | 189° |
| 2026-05-09 04:45 | -64.37325 | -69.40148 | 30286 ft | 507 kts | 189° |
| 2026-05-09 04:45 | -64.44517 | -69.40911 | 30285 ft | 507 kts | 189° |
| 2026-05-09 04:46 | -64.51586 | -69.41669 | 30287 ft | 507 kts | 189° |
| 2026-05-09 04:46 | -64.58639 | -69.42431 | 30285 ft | 507 kts | 189° |
| 2026-05-09 04:47 | -64.65662 | -69.43191 | 30285 ft | 508 kts | 189° |
| 2026-05-09 04:47 | -64.72737 | -69.43961 | 30287 ft | 509 kts | 189° |
| 2026-05-09 04:48 | -64.79820 | -69.44733 | 30280 ft | 509 kts | 189° |
| 2026-05-09 04:48 | -64.86904 | -69.45510 | 30275 ft | 508 kts | 189° |
| 2026-05-09 04:49 | -64.93976 | -69.46290 | 30277 ft | 509 kts | 190° |
| 2026-05-09 04:49 | -65.01014 | -69.47078 | 30277 ft | 510 kts | 190° |
| 2026-05-09 04:50 | -65.08122 | -69.47870 | 30276 ft | 510 kts | 190° |
| 2026-05-09 04:50 | -65.15225 | -69.48669 | 30276 ft | 510 kts | 190° |
| 2026-05-09 04:51 | -65.22281 | -69.49464 | 30276 ft | 510 kts | 190° |
| 2026-05-09 04:51 | -65.29395 | -69.50271 | 30277 ft | 512 kts | 190° |
| 2026-05-09 04:52 | -65.36503 | -69.51084 | 30276 ft | 512 kts | 190° |
| 2026-05-09 04:52 | -65.43625 | -69.51901 | 30277 ft | 512 kts | 190° |
| 2026-05-09 04:53 | -65.50745 | -69.52718 | 30285 ft | 512 kts | 190° |
| 2026-05-09 04:53 | -65.57870 | -69.53546 | 30276 ft | 513 kts | 190° |
| 2026-05-09 04:54 | -65.64958 | -69.54375 | 30276 ft | 513 kts | 190° |
| 2026-05-09 04:54 | -65.72087 | -69.55207 | 30277 ft | 513 kts | 190° |
| 2026-05-09 04:55 | -65.79232 | -69.56048 | 30277 ft | 513 kts | 190° |
| 2026-05-09 04:55 | -65.86322 | -69.56896 | 30274 ft | 513 kts | 190° |
| 2026-05-09 04:56 | -65.93463 | -69.57742 | 30277 ft | 513 kts | 190° |
| 2026-05-09 04:56 | -66.00595 | -69.58591 | 30275 ft | 513 kts | 190° |
| 2026-05-09 04:57 | -66.07736 | -69.59450 | 30280 ft | 514 kts | 191° |
| 2026-05-09 04:57 | -66.14851 | -69.60316 | 30292 ft | 515 kts | 191° |
| 2026-05-09 04:58 | -66.22008 | -69.61196 | 30294 ft | 514 kts | 191° |
| 2026-05-09 04:58 | -66.29153 | -69.62065 | 30294 ft | 514 kts | 191° |
| 2026-05-09 04:59 | -66.36297 | -69.62949 | 30295 ft | 514 kts | 191° |
| 2026-05-09 04:59 | -66.43439 | -69.63835 | 30294 ft | 514 kts | 191° |
| 2026-05-09 05:00 | -66.50589 | -69.64727 | 30295 ft | 514 kts | 191° |
| 2026-05-09 05:00 | -66.57743 | -69.65625 | 30295 ft | 514 kts | 191° |
| 2026-05-09 05:01 | -66.64854 | -69.66519 | 30294 ft | 514 kts | 191° |
| 2026-05-09 05:01 | -66.72007 | -69.67428 | 30295 ft | 514 kts | 191° |
| 2026-05-09 05:02 | -66.79162 | -69.68342 | 30294 ft | 514 kts | 191° |
| 2026-05-09 05:02 | -66.86274 | -69.69254 | 30295 ft | 514 kts | 191° |
| 2026-05-09 05:03 | -66.93427 | -69.70179 | 30295 ft | 514 kts | 191° |
| 2026-05-09 05:03 | -67.00571 | -69.71107 | 30296 ft | 514 kts | 191° |
| 2026-05-09 05:04 | -67.07716 | -69.72039 | 30295 ft | 514 kts | 191° |
| 2026-05-09 05:04 | -67.14869 | -69.72977 | 30296 ft | 514 kts | 191° |
| 2026-05-09 05:05 | -67.22021 | -69.73925 | 30295 ft | 514 kts | 191° |
| 2026-05-09 05:05 | -67.29131 | -69.74881 | 30292 ft | 514 kts | 191° |
| 2026-05-09 05:06 | -67.36283 | -69.75834 | 30295 ft | 514 kts | 191° |
| 2026-05-09 05:06 | -67.43433 | -69.76791 | 30294 ft | 514 kts | 192° |
| 2026-05-09 05:07 | -67.50583 | -69.77757 | 30294 ft | 514 kts | 192° |
| 2026-05-09 05:07 | -67.57726 | -69.78732 | 30294 ft | 514 kts | 192° |
| 2026-05-09 05:08 | -67.64848 | -69.79711 | 30298 ft | 515 kts | 192° |
| 2026-05-09 05:08 | -67.72009 | -69.80698 | 30295 ft | 515 kts | 192° |
| 2026-05-09 05:09 | -67.79167 | -69.81690 | 30294 ft | 515 kts | 192° |
| 2026-05-09 05:09 | -67.86329 | -69.82688 | 30294 ft | 515 kts | 192° |
| 2026-05-09 05:10 | -67.93452 | -69.83689 | 30294 ft | 515 kts | 192° |
| 2026-05-09 05:10 | -68.00617 | -69.84706 | 30295 ft | 515 kts | 192° |
| 2026-05-09 05:11 | -68.07784 | -69.85721 | 30290 ft | 515 kts | 192° |
| 2026-05-09 05:11 | -68.14939 | -69.86746 | 30284 ft | 515 kts | 192° |
| 2026-05-09 05:12 | -68.22093 | -69.87774 | 30287 ft | 515 kts | 192° |
| 2026-05-09 05:12 | -68.29249 | -69.88807 | 30285 ft | 514 kts | 192° |
| 2026-05-09 05:13 | -68.36395 | -69.89845 | 30286 ft | 514 kts | 192° |
| 2026-05-09 05:13 | -68.43526 | -69.90898 | 30289 ft | 513 kts | 192° |
| 2026-05-09 05:14 | -68.50622 | -69.91945 | 30283 ft | 513 kts | 192° |
| 2026-05-09 05:14 | -68.57746 | -69.93001 | 30290 ft | 512 kts | 192° |
| 2026-05-09 05:15 | -68.64865 | -69.94070 | 30284 ft | 512 kts | 193° |
| 2026-05-09 05:15 | -68.71984 | -69.95143 | 30288 ft | 511 kts | 193° |
| 2026-05-09 05:16 | -68.79095 | -69.96216 | 30283 ft | 511 kts | 193° |
| 2026-05-09 05:16 | -68.86192 | -69.97300 | 30289 ft | 510 kts | 193° |
| 2026-05-09 05:17 | -68.93248 | -69.98379 | 30284 ft | 510 kts | 194° |
| 2026-05-09 05:17 | -69.00320 | -69.99474 | 30286 ft | 509 kts | 194° |
| 2026-05-09 05:18 | -69.07388 | -70.00568 | 30283 ft | 509 kts | 194° |
| 2026-05-09 05:18 | -69.13291 | -70.01501 | 30288 ft | 511 kts | 194° |
| 2026-05-09 05:19 | -69.20396 | -70.02613 | 30285 ft | 510 kts | 194° |
| 2026-05-09 05:19 | -69.27464 | -70.03734 | 30284 ft | 508 kts | 195° |
| 2026-05-09 05:20 | -69.34488 | -70.04851 | 30282 ft | 508 kts | 195° |
| 2026-05-09 05:20 | -69.41544 | -70.05985 | 30291 ft | 507 kts | 195° |
| 2026-05-09 05:21 | -69.48575 | -70.07105 | 30279 ft | 506 kts | 195° |
| 2026-05-09 05:21 | -69.55609 | -70.08250 | 30272 ft | 505 kts | 195° |
| 2026-05-09 05:22 | -69.62634 | -70.09392 | 30279 ft | 505 kts | 195° |
| 2026-05-09 05:22 | -69.69641 | -70.10550 | 30277 ft | 504 kts | 196° |
| 2026-05-09 05:23 | -69.76657 | -70.11717 | 30280 ft | 504 kts | 196° |
| 2026-05-09 05:23 | -69.83630 | -70.12882 | 30311 ft | 504 kts | 196° |
| 2026-05-09 05:23 | -69.87143 | -70.13484 | 30580 ft | 505 kts | 196° |
| 2026-05-09 05:24 | -69.90635 | -70.14060 | 30978 ft | 501 kts | 196° |
| 2026-05-09 05:24 | -69.94120 | -70.14633 | 31376 ft | 499 kts | 196° |
| 2026-05-09 05:24 | -69.97576 | -70.15214 | 31704 ft | 497 kts | 196° |
| 2026-05-09 05:24 | -70.01029 | -70.15789 | 31948 ft | 497 kts | 197° |
| 2026-05-09 05:25 | -70.04475 | -70.16394 | 32193 ft | 497 kts | 197° |
| 2026-05-09 05:25 | -70.14852 | -70.18202 | 32271 ft | 496 kts | 197° |
| 2026-05-09 05:26 | -70.21738 | -70.19380 | 32276 ft | 496 kts | 196° |
| 2026-05-09 05:26 | -70.28588 | -70.20572 | 32275 ft | 495 kts | 197° |
| 2026-05-09 05:27 | -70.35484 | -70.21790 | 32280 ft | 497 kts | 196° |
| 2026-05-09 05:27 | -70.42409 | -70.23017 | 32283 ft | 498 kts | 196° |
| 2026-05-09 05:28 | -70.49327 | -70.24238 | 32271 ft | 498 kts | 196° |
| 2026-05-09 05:28 | -70.56242 | -70.25471 | 32286 ft | 497 kts | 196° |
| 2026-05-09 05:29 | -70.63182 | -70.26724 | 32292 ft | 499 kts | 196° |
| 2026-05-09 05:29 | -70.70080 | -70.27980 | 32285 ft | 500 kts | 195° |
| 2026-05-09 05:30 | -70.77016 | -70.29245 | 32270 ft | 499 kts | 195° |
| 2026-05-09 05:30 | -70.83958 | -70.30534 | 32280 ft | 501 kts | 195° |
| 2026-05-09 05:31 | -70.90952 | -70.31835 | 32276 ft | 502 kts | 195° |
| 2026-05-09 05:31 | -70.97883 | -70.33113 | 32280 ft | 501 kts | 195° |
| 2026-05-09 05:32 | -71.04870 | -70.34426 | 32276 ft | 502 kts | 195° |
| 2026-05-09 05:32 | -71.11854 | -70.35753 | 32274 ft | 503 kts | 194° |
| 2026-05-09 05:33 | -71.18793 | -70.37073 | 32282 ft | 503 kts | 194° |
| 2026-05-09 05:33 | -71.25783 | -70.38406 | 32270 ft | 503 kts | 194° |
| 2026-05-09 05:34 | -71.32787 | -70.39770 | 32281 ft | 504 kts | 194° |
| 2026-05-09 05:34 | -71.39791 | -70.41136 | 32278 ft | 504 kts | 194° |
| 2026-05-09 05:35 | -71.46768 | -70.42498 | 32274 ft | 504 kts | 194° |
| 2026-05-09 05:35 | -71.53785 | -70.43887 | 32280 ft | 505 kts | 194° |
| 2026-05-09 05:36 | -71.60782 | -70.45284 | 32276 ft | 505 kts | 193° |
| 2026-05-09 05:36 | -71.67802 | -70.46689 | 32276 ft | 505 kts | 193° |
| 2026-05-09 05:37 | -71.74809 | -70.48100 | 32277 ft | 505 kts | 194° |
| 2026-05-09 05:37 | -71.81848 | -70.49535 | 32279 ft | 505 kts | 194° |
| 2026-05-09 05:38 | -71.88861 | -70.50975 | 32277 ft | 505 kts | 193° |
| 2026-05-09 05:38 | -71.95842 | -70.52415 | 32273 ft | 505 kts | 193° |
| 2026-05-09 05:39 | -72.02845 | -70.53875 | 32278 ft | 505 kts | 193° |
| 2026-05-09 05:39 | -72.09896 | -70.55345 | 32275 ft | 507 kts | 193° |
| 2026-05-09 05:40 | -72.16944 | -70.56835 | 32275 ft | 506 kts | 193° |
| 2026-05-09 05:40 | -72.23989 | -70.58348 | 32281 ft | 507 kts | 193° |
| 2026-05-09 05:41 | -72.31024 | -70.59856 | 32269 ft | 507 kts | 193° |
| 2026-05-09 05:41 | -72.38038 | -70.61376 | 32282 ft | 508 kts | 192° |
| 2026-05-09 05:42 | -72.45062 | -70.62905 | 32278 ft | 508 kts | 192° |
| 2026-05-09 05:42 | -72.52134 | -70.64457 | 32272 ft | 508 kts | 192° |
| 2026-05-09 05:43 | -72.59156 | -70.66010 | 32282 ft | 508 kts | 192° |
| 2026-05-09 05:43 | -72.66230 | -70.67593 | 32274 ft | 509 kts | 192° |
| 2026-05-09 05:44 | -72.73309 | -70.69190 | 32276 ft | 509 kts | 192° |
| 2026-05-09 05:44 | -72.80360 | -70.70785 | 32277 ft | 510 kts | 192° |
| 2026-05-09 05:45 | -72.87443 | -70.72398 | 32274 ft | 510 kts | 192° |
| 2026-05-09 05:45 | -72.94524 | -70.74030 | 32279 ft | 510 kts | 191° |
| 2026-05-09 05:46 | -73.01617 | -70.75682 | 32276 ft | 511 kts | 191° |
| 2026-05-09 05:46 | -73.08715 | -70.77343 | 32277 ft | 511 kts | 191° |
| 2026-05-09 05:47 | -73.15822 | -70.79017 | 32278 ft | 511 kts | 191° |
| 2026-05-09 05:47 | -73.22870 | -70.80699 | 32275 ft | 511 kts | 191° |
| 2026-05-09 05:48 | -73.29976 | -70.82405 | 32275 ft | 511 kts | 191° |
| 2026-05-09 05:48 | -73.37078 | -70.84126 | 32265 ft | 511 kts | 191° |
| 2026-05-09 05:49 | -73.44195 | -70.85856 | 32284 ft | 512 kts | 191° |
| 2026-05-09 05:49 | -73.51269 | -70.87599 | 32284 ft | 512 kts | 190° |
| 2026-05-09 05:50 | -73.58383 | -70.89365 | 32287 ft | 512 kts | 190° |
| 2026-05-09 05:50 | -73.65492 | -70.91145 | 32289 ft | 512 kts | 190° |
| 2026-05-09 05:51 | -73.72611 | -70.92942 | 32283 ft | 512 kts | 190° |
| 2026-05-09 05:51 | -73.79737 | -70.94754 | 32290 ft | 512 kts | 190° |
| 2026-05-09 05:52 | -73.86804 | -70.96568 | 32283 ft | 512 kts | 190° |
| 2026-05-09 05:52 | -73.93912 | -70.98409 | 32285 ft | 512 kts | 190° |
| 2026-05-09 05:53 | -74.01039 | -71.00266 | 32288 ft | 513 kts | 190° |
| 2026-05-09 05:53 | -74.08181 | -71.02050 | 32286 ft | 516 kts | 189° |
| 2026-05-09 05:54 | -74.15359 | -71.03796 | 32286 ft | 517 kts | 189° |
| 2026-05-09 05:54 | -74.22531 | -71.05559 | 32279 ft | 516 kts | 189° |
| 2026-05-09 05:55 | -74.29704 | -71.07362 | 32272 ft | 516 kts | 189° |
| 2026-05-09 05:55 | -74.36829 | -71.09165 | 32281 ft | 517 kts | 189° |
| 2026-05-09 05:56 | -74.44003 | -71.10998 | 32274 ft | 516 kts | 189° |
| 2026-05-09 05:56 | -74.51169 | -71.12852 | 32277 ft | 516 kts | 189° |
| 2026-05-09 05:57 | -74.58358 | -71.14729 | 32276 ft | 517 kts | 188° |
| 2026-05-09 05:57 | -74.65538 | -71.16609 | 32275 ft | 517 kts | 188° |
| 2026-05-09 05:58 | -74.72723 | -71.18516 | 32277 ft | 518 kts | 188° |
| 2026-05-09 05:58 | -74.79874 | -71.20429 | 32275 ft | 518 kts | 188° |
| 2026-05-09 05:59 | -74.87081 | -71.22378 | 32279 ft | 518 kts | 188° |
| 2026-05-09 05:59 | -74.94275 | -71.24341 | 32274 ft | 518 kts | 188° |
| 2026-05-09 06:00 | -75.01496 | -71.26326 | 32277 ft | 519 kts | 188° |
| 2026-05-09 06:00 | -75.08664 | -71.28318 | 32278 ft | 519 kts | 188° |
| 2026-05-09 06:01 | -75.15892 | -71.30351 | 32279 ft | 520 kts | 188° |
| 2026-05-09 06:01 | -75.23067 | -71.32377 | 32285 ft | 515 kts | 189° |
| 2026-05-09 06:02 | -75.30135 | -71.34374 | 32268 ft | 505 kts | 189° |
| 2026-05-09 06:02 | -75.37188 | -71.36422 | 32283 ft | 509 kts | 189° |
| 2026-05-09 06:03 | -75.44213 | -71.38480 | 32277 ft | 509 kts | 189° |
| 2026-05-09 06:03 | -75.51275 | -71.40561 | 32272 ft | 508 kts | 189° |
| 2026-05-09 06:04 | -75.58332 | -71.42653 | 32279 ft | 508 kts | 189° |
| 2026-05-09 06:04 | -75.65398 | -71.44773 | 32274 ft | 508 kts | 189° |
| 2026-05-09 06:05 | -75.72397 | -71.46888 | 32279 ft | 507 kts | 189° |
| 2026-05-09 06:05 | -75.79461 | -71.49051 | 32277 ft | 508 kts | 189° |
| 2026-05-09 06:06 | -75.85314 | -71.50859 | 32276 ft | 508 kts | 189° |
| 2026-05-09 06:06 | -75.93512 | -71.53408 | 32276 ft | 507 kts | 189° |
| 2026-05-09 06:07 | -75.99386 | -71.55251 | 32275 ft | 507 kts | 189° |
| 2026-05-09 06:07 | -76.06438 | -71.57490 | 32276 ft | 508 kts | 189° |
| 2026-05-09 06:08 | -76.13500 | -71.59756 | 32278 ft | 508 kts | 189° |
| 2026-05-09 06:08 | -76.20506 | -71.62028 | 32275 ft | 507 kts | 189° |
| 2026-05-09 06:09 | -76.27547 | -71.64331 | 32278 ft | 507 kts | 189° |
| 2026-05-09 06:09 | -76.34602 | -71.66663 | 32275 ft | 508 kts | 189° |
| 2026-05-09 06:10 | -76.41615 | -71.69000 | 32277 ft | 508 kts | 189° |
| 2026-05-09 06:10 | -76.48675 | -71.71382 | 32276 ft | 508 kts | 189° |
| 2026-05-09 06:11 | -76.54581 | -71.73389 | 32235 ft | 508 kts | 189° |
| 2026-05-09 06:11 | -76.63310 | -71.76390 | 32232 ft | 508 kts | 188° |
| 2026-05-09 06:12 | -76.70372 | -71.78850 | 32229 ft | 508 kts | 188° |
| 2026-05-09 06:12 | -76.77434 | -71.81337 | 32231 ft | 509 kts | 188° |
| 2026-05-09 06:13 | -76.84459 | -71.83836 | 32230 ft | 509 kts | 188° |
| 2026-05-09 06:13 | -76.91535 | -71.86377 | 32232 ft | 510 kts | 188° |
| 2026-05-09 06:14 | -76.98623 | -71.88947 | 32228 ft | 510 kts | 188° |
| 2026-05-09 06:14 | -77.05700 | -71.91545 | 32232 ft | 510 kts | 188° |
| 2026-05-09 06:15 | -77.12739 | -71.94152 | 32231 ft | 511 kts | 188° |
| 2026-05-09 06:15 | -77.19854 | -71.96823 | 32229 ft | 510 kts | 188° |
| 2026-05-09 06:16 | -77.26944 | -71.99511 | 32231 ft | 511 kts | 188° |
| 2026-05-09 06:16 | -77.34006 | -72.02209 | 32233 ft | 511 kts | 188° |
| 2026-05-09 06:17 | -77.41096 | -72.04957 | 32231 ft | 510 kts | 188° |
| 2026-05-09 06:17 | -77.48177 | -72.07730 | 32238 ft | 511 kts | 188° |
| 2026-05-09 06:18 | -77.55273 | -72.10545 | 32250 ft | 511 kts | 188° |
| 2026-05-09 06:18 | -77.62330 | -72.13376 | 32248 ft | 511 kts | 188° |
| 2026-05-09 06:19 | -77.69414 | -72.16249 | 32248 ft | 512 kts | 187° |
| 2026-05-09 06:19 | -77.76526 | -72.19162 | 32250 ft | 512 kts | 188° |
| 2026-05-09 06:20 | -77.83605 | -72.22096 | 32248 ft | 512 kts | 188° |
| 2026-05-09 06:20 | -77.90678 | -72.25065 | 32249 ft | 512 kts | 188° |
| 2026-05-09 06:21 | -77.97797 | -72.28088 | 32249 ft | 512 kts | 188° |
| 2026-05-09 06:21 | -78.04879 | -72.31124 | 32249 ft | 512 kts | 188° |
| 2026-05-09 06:22 | -78.11962 | -72.34203 | 32250 ft | 512 kts | 188° |
| 2026-05-09 06:22 | -78.19044 | -72.37318 | 32250 ft | 511 kts | 188° |
| 2026-05-09 06:23 | -78.26157 | -72.40480 | 32247 ft | 511 kts | 188° |
| 2026-05-09 06:23 | -78.33206 | -72.43651 | 32250 ft | 511 kts | 188° |
| 2026-05-09 06:24 | -78.40295 | -72.46889 | 32248 ft | 511 kts | 188° |
| 2026-05-09 06:24 | -78.47364 | -72.50139 | 32255 ft | 511 kts | 188° |
| 2026-05-09 06:25 | -78.54466 | -72.53447 | 32247 ft | 510 kts | 188° |
| 2026-05-09 06:25 | -78.61542 | -72.56789 | 32250 ft | 510 kts | 188° |
| 2026-05-09 06:26 | -78.68568 | -72.60165 | 32249 ft | 510 kts | 188° |
| 2026-05-09 06:26 | -78.75628 | -72.63587 | 32249 ft | 510 kts | 188° |
| 2026-05-09 06:27 | -78.82725 | -72.67061 | 32249 ft | 510 kts | 188° |
| 2026-05-09 06:27 | -78.89757 | -72.70558 | 32249 ft | 510 kts | 188° |
| 2026-05-09 06:28 | -78.96845 | -72.74121 | 32242 ft | 509 kts | 188° |
| 2026-05-09 06:28 | -79.03917 | -72.77717 | 32239 ft | 509 kts | 188° |
| 2026-05-09 06:29 | -79.10956 | -72.81343 | 32241 ft | 509 kts | 188° |
| 2026-05-09 06:29 | -79.17968 | -72.85015 | 32240 ft | 509 kts | 188° |
| 2026-05-09 06:30 | -79.25028 | -72.88756 | 32238 ft | 509 kts | 188° |
| 2026-05-09 06:30 | -79.32044 | -72.92519 | 32237 ft | 508 kts | 188° |
| 2026-05-09 06:31 | -79.39087 | -72.96339 | 32241 ft | 508 kts | 188° |
| 2026-05-09 06:31 | -79.46112 | -73.00207 | 32239 ft | 508 kts | 188° |
| 2026-05-09 06:32 | -79.53177 | -73.04149 | 32240 ft | 508 kts | 188° |
| 2026-05-09 06:33 | -79.62554 | -73.09467 | 32240 ft | 508 kts | 188° |
| 2026-05-09 06:33 | -79.69530 | -73.13488 | 32240 ft | 508 kts | 188° |
| 2026-05-09 06:34 | -79.80073 | -73.19651 | 32240 ft | 507 kts | 188° |
| 2026-05-09 06:34 | -79.87099 | -73.23831 | 32239 ft | 507 kts | 188° |
| 2026-05-09 06:35 | -79.94156 | -73.28095 | 32242 ft | 507 kts | 188° |
| 2026-05-09 06:35 | -80.01151 | -73.32381 | 32240 ft | 507 kts | 188° |
| 2026-05-09 06:36 | -80.08146 | -73.36725 | 32237 ft | 506 kts | 188° |
| 2026-05-09 06:36 | -80.15138 | -73.41128 | 32240 ft | 506 kts | 188° |
| 2026-05-09 06:37 | -80.22151 | -73.45608 | 32240 ft | 506 kts | 188° |
| 2026-05-09 06:37 | -80.29156 | -73.50152 | 32240 ft | 506 kts | 188° |
| 2026-05-09 06:38 | -80.36113 | -73.54715 | 32241 ft | 506 kts | 188° |
| 2026-05-09 06:38 | -80.43136 | -73.59396 | 32239 ft | 506 kts | 188° |
| 2026-05-09 06:39 | -80.50126 | -73.64122 | 32240 ft | 506 kts | 189° |
| 2026-05-09 06:39 | -80.57113 | -73.68926 | 32240 ft | 506 kts | 189° |
| 2026-05-09 06:40 | -80.64081 | -73.73788 | 32239 ft | 505 kts | 189° |
| 2026-05-09 06:40 | -80.71072 | -73.78719 | 32194 ft | 506 kts | 189° |
| 2026-05-09 06:41 | -80.78070 | -73.83749 | 32198 ft | 505 kts | 189° |
| 2026-05-09 06:41 | -80.85049 | -73.88839 | 32196 ft | 505 kts | 189° |
| 2026-05-09 06:42 | -80.92008 | -73.93987 | 32195 ft | 504 kts | 189° |
| 2026-05-09 06:42 | -80.98959 | -73.99210 | 32193 ft | 503 kts | 189° |
| 2026-05-09 06:43 | -81.05913 | -74.03807 | 32190 ft | 504 kts | 187° |
| 2026-05-09 06:43 | -81.12888 | -74.07554 | 32184 ft | 503 kts | 187° |
| 2026-05-09 06:44 | -81.19907 | -74.11362 | 32181 ft | 503 kts | 187° |
| 2026-05-09 06:44 | -81.26849 | -74.15349 | 32187 ft | 503 kts | 187° |
| 2026-05-09 06:45 | -81.33813 | -74.19497 | 32183 ft | 502 kts | 187° |
| 2026-05-09 06:45 | -81.40767 | -74.23706 | 32186 ft | 502 kts | 187° |
| 2026-05-09 06:46 | -81.47723 | -74.27990 | 32185 ft | 502 kts | 187° |
| 2026-05-09 06:46 | -81.54666 | -74.32324 | 32184 ft | 502 kts | 187° |
| 2026-05-09 06:47 | -81.61652 | -74.36752 | 32184 ft | 502 kts | 187° |
| 2026-05-09 06:47 | -81.68617 | -74.41249 | 32184 ft | 502 kts | 187° |
| 2026-05-09 06:48 | -81.75538 | -74.45798 | 32184 ft | 502 kts | 188° |
| 2026-05-09 06:48 | -81.82510 | -74.50440 | 32184 ft | 502 kts | 188° |
| 2026-05-09 06:49 | -81.89443 | -74.55141 | 32185 ft | 502 kts | 188° |
| 2026-05-09 06:49 | -81.96387 | -74.59932 | 32184 ft | 501 kts | 188° |
| 2026-05-09 06:50 | -82.03294 | -74.64800 | 32186 ft | 501 kts | 188° |
| 2026-05-09 06:50 | -82.10263 | -74.69774 | 32184 ft | 500 kts | 188° |
| 2026-05-09 06:51 | -82.17192 | -74.74805 | 32182 ft | 500 kts | 188° |
| 2026-05-09 06:51 | -82.24105 | -74.79924 | 32190 ft | 500 kts | 188° |
| 2026-05-09 06:52 | -82.30988 | -74.85108 | 32180 ft | 499 kts | 188° |
| 2026-05-09 06:52 | -82.37934 | -74.90435 | 32185 ft | 499 kts | 188° |
| 2026-05-09 06:53 | -82.44845 | -74.95836 | 32183 ft | 500 kts | 188° |
| 2026-05-09 06:53 | -82.51756 | -75.01339 | 32186 ft | 500 kts | 188° |
| 2026-05-09 06:54 | -82.58654 | -75.06926 | 32186 ft | 499 kts | 188° |
| 2026-05-09 06:54 | -82.65563 | -75.12635 | 32187 ft | 499 kts | 188° |
| 2026-05-09 06:55 | -82.72449 | -75.18419 | 32184 ft | 499 kts | 188° |
| 2026-05-09 06:55 | -82.79399 | -75.24378 | 32186 ft | 499 kts | 188° |
| 2026-05-09 06:56 | -82.86294 | -75.30409 | 32185 ft | 499 kts | 188° |
| 2026-05-09 06:56 | -82.93157 | -75.36525 | 32186 ft | 499 kts | 188° |
| 2026-05-09 06:57 | -83.00078 | -75.42819 | 32184 ft | 498 kts | 189° |
| 2026-05-09 06:57 | -83.06949 | -75.49186 | 32186 ft | 498 kts | 189° |
| 2026-05-09 06:58 | -83.13824 | -75.55709 | 32187 ft | 498 kts | 189° |
| 2026-05-09 06:58 | -83.20705 | -75.62320 | 32185 ft | 498 kts | 189° |
| 2026-05-09 06:59 | -83.27610 | -75.69109 | 32184 ft | 497 kts | 189° |
| 2026-05-09 06:59 | -83.34463 | -75.75988 | 32184 ft | 497 kts | 189° |
| 2026-05-09 07:00 | -83.41336 | -75.83044 | 32176 ft | 497 kts | 189° |
| 2026-05-09 07:00 | -83.48227 | -75.90281 | 32176 ft | 496 kts | 189° |
| 2026-05-09 07:01 | -83.55033 | -75.97569 | 32186 ft | 496 kts | 189° |
| 2026-05-09 07:01 | -83.61882 | -76.05041 | 32186 ft | 496 kts | 189° |
| 2026-05-09 07:02 | -83.68747 | -76.12690 | 32183 ft | 496 kts | 189° |
| 2026-05-09 07:02 | -83.75572 | -76.20490 | 32183 ft | 496 kts | 189° |
| 2026-05-09 07:03 | -83.82440 | -76.28515 | 32186 ft | 496 kts | 190° |
| 2026-05-09 07:03 | -83.89308 | -76.36705 | 32183 ft | 496 kts | 190° |
| 2026-05-09 07:04 | -83.96113 | -76.45001 | 32186 ft | 496 kts | 190° |
| 2026-05-09 07:04 | -84.02983 | -76.53563 | 32185 ft | 496 kts | 190° |
| 2026-05-09 07:05 | -84.09817 | -76.62298 | 32185 ft | 495 kts | 190° |
| 2026-05-09 07:05 | -84.16600 | -76.71172 | 32182 ft | 495 kts | 190° |
| 2026-05-09 07:06 | -84.23429 | -76.80316 | 32174 ft | 495 kts | 190° |
| 2026-05-09 07:06 | -84.30244 | -76.89649 | 32176 ft | 494 kts | 190° |
| 2026-05-09 07:07 | -84.37050 | -76.99202 | 32175 ft | 494 kts | 191° |
| 2026-05-09 07:07 | -84.43898 | -77.09068 | 32176 ft | 494 kts | 191° |
| 2026-05-09 07:08 | -84.50697 | -77.19095 | 32176 ft | 494 kts | 191° |
| 2026-05-09 07:08 | -84.57475 | -77.29330 | 32176 ft | 493 kts | 191° |
| 2026-05-09 07:09 | -84.64258 | -77.39841 | 32177 ft | 493 kts | 191° |
| 2026-05-09 07:09 | -84.71092 | -77.50717 | 32174 ft | 493 kts | 191° |
| 2026-05-09 07:10 | -84.77812 | -77.61682 | 32180 ft | 493 kts | 191° |
| 2026-05-09 07:10 | -84.84605 | -77.73064 | 32173 ft | 493 kts | 191° |
| 2026-05-09 07:11 | -84.91405 | -77.84747 | 32176 ft | 492 kts | 191° |
| 2026-05-09 07:11 | -84.98186 | -77.96687 | 32175 ft | 493 kts | 191° |
| 2026-05-09 07:12 | -85.05032 | -78.00205 | 32186 ft | 496 kts | 179° |
| 2026-05-09 07:12 | -85.11902 | -77.94782 | 32175 ft | 496 kts | 177° |
| 2026-05-09 07:13 | -85.18748 | -77.87489 | 32175 ft | 496 kts | 176° |
| 2026-05-09 07:13 | -85.25653 | -77.79562 | 32179 ft | 496 kts | 176° |
| 2026-05-09 07:14 | -85.32497 | -77.71416 | 32175 ft | 496 kts | 176° |
| 2026-05-09 07:14 | -85.39364 | -77.62992 | 32177 ft | 496 kts | 176° |
| 2026-05-09 07:15 | -85.46231 | -77.54322 | 32175 ft | 496 kts | 176° |
| 2026-05-09 07:15 | -85.53116 | -77.45397 | 32174 ft | 496 kts | 176° |
| 2026-05-09 07:16 | -85.59970 | -77.36243 | 32175 ft | 496 kts | 176° |
| 2026-05-09 07:16 | -85.66835 | -77.26797 | 32177 ft | 496 kts | 175° |
| 2026-05-09 07:17 | -85.73696 | -77.17064 | 32175 ft | 495 kts | 175° |
| 2026-05-09 07:17 | -85.80530 | -77.07089 | 32176 ft | 495 kts | 175° |
| 2026-05-09 07:18 | -85.87400 | -76.96709 | 32175 ft | 495 kts | 175° |
| 2026-05-09 07:18 | -85.94258 | -76.86028 | 32176 ft | 495 kts | 175° |
| 2026-05-09 07:19 | -86.01102 | -76.75022 | 32176 ft | 496 kts | 175° |
| 2026-05-09 07:19 | -86.07908 | -76.63732 | 32174 ft | 495 kts | 175° |
| 2026-05-09 07:20 | -86.13658 | -76.53894 | 32175 ft | 495 kts | 175° |
| 2026-05-09 07:20 | -86.20490 | -76.41837 | 32173 ft | 496 kts | 175° |
| 2026-05-09 07:21 | -86.27336 | -76.29322 | 32176 ft | 495 kts | 174° |
| 2026-05-09 07:21 | -86.34164 | -76.16395 | 32175 ft | 495 kts | 174° |
| 2026-05-09 07:22 | -86.40979 | -76.03014 | 32175 ft | 495 kts | 174° |
| 2026-05-09 07:22 | -86.47819 | -75.89091 | 32176 ft | 495 kts | 174° |
| 2026-05-09 07:23 | -86.54647 | -75.74698 | 32175 ft | 496 kts | 174° |
| 2026-05-09 07:23 | -86.61534 | -75.59628 | 32176 ft | 496 kts | 174° |
| 2026-05-09 07:24 | -86.68357 | -75.44104 | 32175 ft | 496 kts | 174° |
| 2026-05-09 07:24 | -86.75155 | -75.27985 | 32172 ft | 496 kts | 173° |
| 2026-05-09 07:25 | -86.81985 | -75.11132 | 32167 ft | 496 kts | 173° |
| 2026-05-09 07:25 | -86.88815 | -74.93587 | 32165 ft | 496 kts | 173° |
| 2026-05-09 07:26 | -86.95668 | -74.75246 | 32166 ft | 496 kts | 173° |
| 2026-05-09 07:26 | -87.02489 | -74.56152 | 32166 ft | 497 kts | 173° |
| 2026-05-09 07:27 | -87.09354 | -74.36079 | 32166 ft | 497 kts | 172° |
| 2026-05-09 07:27 | -87.16139 | -74.15310 | 32164 ft | 496 kts | 172° |
| 2026-05-09 07:28 | -87.22961 | -73.93462 | 32165 ft | 496 kts | 172° |
| 2026-05-09 07:28 | -87.29793 | -73.70513 | 32166 ft | 497 kts | 172° |
| 2026-05-09 07:29 | -87.36591 | -73.46549 | 32179 ft | 496 kts | 171° |
| 2026-05-09 07:29 | -87.43398 | -73.21289 | 32224 ft | 496 kts | 171° |
| 2026-05-09 07:30 | -87.50232 | -72.94599 | 32233 ft | 497 kts | 171° |
| 2026-05-09 07:30 | -87.57066 | -72.66465 | 32228 ft | 497 kts | 171° |
| 2026-05-09 07:31 | -87.63810 | -72.37128 | 32230 ft | 496 kts | 170° |
| 2026-05-09 07:31 | -87.70610 | -72.05846 | 32229 ft | 496 kts | 170° |
| 2026-05-09 07:32 | -87.77370 | -71.72920 | 32220 ft | 497 kts | 170° |
| 2026-05-09 07:32 | -87.84160 | -71.37817 | 32193 ft | 496 kts | 169° |
| 2026-05-09 07:33 | -87.94278 | -70.81300 | 32192 ft | 496 kts | 169° |
| 2026-05-09 07:34 | -88.01033 | -70.40420 | 32186 ft | 496 kts | 168° |
| 2026-05-09 07:34 | -88.07754 | -69.96942 | 32189 ft | 496 kts | 168° |
| 2026-05-09 07:35 | -88.14512 | -69.50108 | 32218 ft | 496 kts | 167° |
| 2026-05-09 07:35 | -88.21214 | -69.00219 | 32207 ft | 495 kts | 167° |
| 2026-05-09 07:36 | -88.27886 | -68.46722 | 32194 ft | 495 kts | 166° |
| 2026-05-09 07:36 | -88.34578 | -67.88761 | 32196 ft | 497 kts | 166° |
| 2026-05-09 07:37 | -88.41293 | -67.25746 | 32164 ft | 497 kts | 165° |
| 2026-05-09 07:37 | -88.47906 | -66.58249 | 32165 ft | 495 kts | 164° |
| 2026-05-09 07:38 | -88.54544 | -65.84288 | 32174 ft | 496 kts | 164° |
| 2026-05-09 07:38 | -88.61184 | -65.03201 | 32177 ft | 498 kts | 162° |
| 2026-05-09 07:39 | -88.67744 | -64.15014 | 32171 ft | 496 kts | 162° |
| 2026-05-09 07:39 | -88.74272 | -63.17949 | 32177 ft | 497 kts | 161° |
| 2026-05-09 07:40 | -88.80812 | -62.09808 | 32187 ft | 496 kts | 160° |
| 2026-05-09 07:40 | -88.87291 | -60.89914 | 32183 ft | 497 kts | 158° |
| 2026-05-09 07:41 | -88.93647 | -59.57505 | 32177 ft | 497 kts | 157° |
| 2026-05-09 07:41 | -89.00001 | -58.07500 | 32175 ft | 496 kts | 155° |
| 2026-05-09 07:42 | -89.06261 | -56.38529 | 32160 ft | 496 kts | 154° |
| 2026-05-09 07:42 | -89.09066 | -55.54673 | 32115 ft | 496 kts | 153° |
| 2026-05-09 07:43 | -89.11631 | -54.72489 | 32056 ft | 496 kts | 152° |
| 2026-05-09 07:43 | -89.14176 | -53.84769 | 31991 ft | 497 kts | 150° |
| 2026-05-09 07:44 | -89.15692 | -53.29188 | 31958 ft | 497 kts | 150° |
| 2026-05-09 07:44 | -89.16295 | -53.06298 | 31948 ft | 497 kts | 149° |
| 2026-05-09 07:45 | -89.17196 | -52.71234 | 31933 ft | 497 kts | 149° |
| 2026-05-09 07:45 | -89.17894 | -52.43343 | 31924 ft | 497 kts | 148° |
| 2026-05-09 07:46 | -89.18590 | -52.14901 | 31917 ft | 497 kts | 148° |
| 2026-05-09 07:46 | -89.19183 | -51.90084 | 31913 ft | 497 kts | 148° |
| 2026-05-09 07:47 | -89.19873 | -51.60609 | 31910 ft | 497 kts | 147° |
| 2026-05-09 07:47 | -89.20658 | -51.26222 | 31909 ft | 496 kts | 147° |
| 2026-05-09 07:48 | -89.21244 | -50.99931 | 31910 ft | 496 kts | 147° |
| 2026-05-09 07:48 | -89.22118 | -50.59673 | 31915 ft | 496 kts | 146° |
| 2026-05-09 07:49 | -89.27711 | -47.84264 | 32073 ft | 496 kts | 145° |
| 2026-05-09 07:49 | -89.32476 | -45.15776 | 32156 ft | 496 kts | 142° |
| 2026-05-09 07:50 | -89.33316 | -44.63910 | 32171 ft | 496 kts | 142° |
| 2026-05-09 07:50 | -89.33870 | -44.28772 | 32180 ft | 496 kts | 141° |
| 2026-05-09 07:51 | -89.34330 | -43.99063 | 32187 ft | 495 kts | 141° |
| 2026-05-09 07:51 | -89.34788 | -43.68951 | 32194 ft | 495 kts | 141° |
| 2026-05-09 07:52 | -89.35335 | -43.32272 | 32201 ft | 495 kts | 140° |
| 2026-05-09 07:52 | -89.35878 | -42.94973 | 32207 ft | 494 kts | 140° |
| 2026-05-09 07:53 | -89.36418 | -42.57030 | 32212 ft | 494 kts | 140° |
| 2026-05-09 07:53 | -89.36866 | -42.24904 | 32215 ft | 494 kts | 139° |
| 2026-05-09 07:54 | -89.37311 | -41.92302 | 32216 ft | 494 kts | 139° |
| 2026-05-09 07:54 | -89.37754 | -41.59209 | 32216 ft | 494 kts | 139° |
| 2026-05-09 07:55 | -89.38194 | -41.25612 | 32214 ft | 494 kts | 138° |
| 2026-05-09 07:55 | -89.38632 | -40.91495 | 32211 ft | 494 kts | 138° |
| 2026-05-09 07:56 | -89.39067 | -40.56846 | 32205 ft | 494 kts | 137° |
| 2026-05-09 07:56 | -89.39585 | -40.14547 | 32196 ft | 494 kts | 137° |
| 2026-05-09 07:57 | -89.40015 | -39.78684 | 32187 ft | 494 kts | 136° |
| 2026-05-09 07:57 | -89.40441 | -39.42251 | 32176 ft | 494 kts | 136° |
| 2026-05-09 07:58 | -89.40950 | -38.97761 | 32162 ft | 494 kts | 135° |
| 2026-05-09 07:58 | -89.41286 | -38.67625 | 32160 ft | 495 kts | 135° |
| 2026-05-09 07:59 | -89.41788 | -38.21695 | 32137 ft | 495 kts | 135° |
| 2026-05-09 07:59 | -89.42120 | -37.90583 | 32126 ft | 495 kts | 134° |
| 2026-05-09 08:00 | -89.42614 | -37.43161 | 32109 ft | 495 kts | 134° |
| 2026-05-09 08:00 | -89.43023 | -37.02941 | 32095 ft | 495 kts | 133° |
| 2026-05-09 08:01 | -89.43428 | -36.62074 | 32081 ft | 496 kts | 133° |
| 2026-05-09 08:01 | -89.46083 | -33.76098 | 32134 ft | 495 kts | 131° |
| 2026-05-09 08:02 | -89.46545 | -33.22993 | 32136 ft | 495 kts | 130° |
| 2026-05-09 08:02 | -89.47009 | -32.68463 | 32149 ft | 495 kts | 130° |
| 2026-05-09 08:03 | -89.47392 | -32.22342 | 32157 ft | 495 kts | 129° |
| 2026-05-09 08:03 | -89.47696 | -31.84973 | 32163 ft | 495 kts | 129° |
| 2026-05-09 08:04 | -89.48073 | -31.37641 | 32167 ft | 495 kts | 128° |
| 2026-05-09 08:04 | -89.48521 | -30.79886 | 32170 ft | 495 kts | 128° |
| 2026-05-09 08:05 | -89.48889 | -30.30922 | 32170 ft | 495 kts | 127° |
| 2026-05-09 08:05 | -89.49253 | -29.81164 | 32168 ft | 495 kts | 127° |
| 2026-05-09 08:06 | -89.49612 | -29.30584 | 32163 ft | 496 kts | 126° |
| 2026-05-09 08:06 | -89.49966 | -28.79155 | 32158 ft | 496 kts | 125° |
| 2026-05-09 08:07 | -89.50246 | -28.37382 | 32152 ft | 496 kts | 124° |
| 2026-05-09 08:07 | -89.53055 | -23.64954 | 32152 ft | 495 kts | 121° |
| 2026-05-09 08:08 | -89.54428 | -20.87401 | 32135 ft | 493 kts | 116° |
| 2026-05-09 08:08 | -89.55508 | -18.16009 | 32067 ft | 492 kts | 111° |
| 2026-05-09 08:09 | -89.56362 | -15.10181 | 31848 ft | 493 kts | 102° |
| 2026-05-09 08:09 | -89.56671 | -13.34398 | 31628 ft | 495 kts | 97° |
| 2026-05-09 08:09 | -89.56849 | -11.53475 | 31328 ft | 498 kts | 90° |
| 2026-05-09 08:09 | -89.56885 | -10.00061 | 31015 ft | 502 kts | 85° |
| 2026-05-09 08:10 | -89.56820 | -8.61227 | 30691 ft | 506 kts | 80° |
| 2026-05-09 08:10 | -89.56287 | -5.21761 | 30423 ft | 494 kts | 74° |
| 2026-05-09 08:10 | -89.56094 | -4.06018 | 30567 ft | 487 kts | 78° |
| 2026-05-09 08:11 | -89.55941 | -1.74704 | 30524 ft | 482 kts | 91° |
| 2026-05-09 08:11 | -89.56005 | -0.73547 | 30162 ft | 483 kts | 98° |
| 2026-05-09 08:11 | -89.56217 | 0.54229 | 29202 ft | 480 kts | 107° |
| 2026-05-09 08:11 | -89.56768 | 2.24994 | 26542 ft | 454 kts | 121° |
| 2026-05-09 08:12 | -89.57927 | 4.19564 | 19259 ft | 354 kts | 135° |
| 2026-05-09 08:12 | -89.58427 | 4.89309 | 14876 ft | 239 kts | 138° |
| 2026-05-09 08:12 | -89.58542 | 5.09536 | 9745 ft | 98 kts | 328° |
| 2026-05-09 08:13 | -89.58518 | 5.09478 | 9032 ft | 0 kts | 315° |